This is the latest recevied weather packets stored in our database for station/object RW6A-13. If no packets are shown the sender has not sent any weather packets the latest 10 day(s).
| Time | Temp. | Humidity | Pressure | Rain* | Wind** | Luminosity | Snow |
|---|---|---|---|---|---|---|---|
| 1778068792 | 22.22° C | 48% | 1009.8 hPa | 0 mm | - | - | - |
| 1778068492 | 22.22° C | 47% | 1009.8 hPa | 0 mm | - | - | - |
| 1778068192 | 22.78° C | 46% | 1009.8 hPa | 0 mm | - | - | - |
| 1778067891 | 22.22° C | 47% | 1009.8 hPa | 0 mm | - | - | - |
| 1778067592 | 22.78° C | 45% | 1009.8 hPa | 0 mm | - | - | - |
| 1778067292 | 22.78° C | 46% | 1009.8 hPa | 0 mm | - | - | - |
| 1778066991 | 23.33° C | 44% | 1009.8 hPa | 0 mm | - | - | - |
| 1778066692 | 23.33° C | 47% | 1009.9 hPa | 0 mm | - | - | - |
| 1778066391 | 23.33° C | 46% | 1009.8 hPa | 0 mm | - | - | - |
| 1778066092 | 23.33° C | 44% | 1009.8 hPa | 0 mm | - | - | - |
| 1778065792 | 24.44° C | 43% | 1009.8 hPa | 0 mm | - | - | - |
| 1778065490 | 24.44° C | 44% | 1009.8 hPa | 0 mm | - | - | - |
| 1778065191 | 23.89° C | 45% | 1009.9 hPa | 0 mm | - | - | - |
| 1778064890 | 24.44° C | 45% | 1009.9 hPa | 0 mm | - | - | - |
| 1778064590 | 23.89° C | 46% | 1009.9 hPa | 0 mm | - | - | - |
| 1778064047 | 23.33° C | 46% | 1009.9 hPa | 0 mm | - | - | - |
| 1778063747 | 23.33° C | 45% | 1009.9 hPa | 0 mm | - | - | - |
| 1778063446 | 23.33° C | 46% | 1010 hPa | 0 mm | - | - | - |
| 1778063147 | 23.33° C | 45% | 1010 hPa | 0 mm | - | - | - |
| 1778062847 | 23.33° C | 47% | 1009.9 hPa | 0 mm | - | - | - |
| 1778062547 | 23.89° C | 46% | 1010 hPa | 0 mm | - | - | - |
| 1778062247 | 23.33° C | 47% | 1010 hPa | 0 mm | - | - | - |
| 1778061946 | 23.89° C | 44% | 1010 hPa | 0 mm | - | - | - |
| 1778061647 | 23.89° C | 45% | 1010 hPa | 0 mm | - | - | - |
| 1778061347 | 23.33° C | 46% | 1010.1 hPa | 0 mm | - | - | - |
* Rain latest hour (hover to see other rain measurements)
** Current wind speed in m/s (hover to see current wind gust speed)